createdAt,value
2022-10-20T06:38:06.650Z,4.20
2022-10-20T06:50:22.550Z,4.30
2022-10-20T07:10:00.522Z,4.60
2022-10-20T07:12:27.712Z,5.00
2022-10-20T07:14:54.914Z,4.60
2022-10-20T07:17:22.072Z,4.50
2022-10-20T09:33:34.103Z,4.50
2022-10-20T09:36:06.118Z,4.43
2022-10-20T09:38:35.733Z,3.77
2022-10-20T09:53:20.532Z,4.57
2022-10-20T09:55:49.052Z,3.97
2022-10-20T09:58:19.907Z,4.37
2022-10-20T10:00:55.054Z,4.23
2022-10-20T10:03:23.787Z,3.90
2022-10-20T10:05:55.232Z,3.57
2022-10-20T10:08:24.086Z,4.33
2022-10-20T10:10:59.343Z,4.03
2022-10-20T10:13:28.014Z,4.17
2022-10-20T10:16:03.173Z,4.87
2022-10-20T10:18:30.562Z,4.47
2022-10-20T10:20:59.983Z,4.23
2022-10-20T10:23:28.237Z,4.33
2022-10-20T10:25:59.227Z,4.47
2022-10-20T10:28:31.239Z,3.93
2022-10-20T10:31:11.021Z,5.23
2022-10-20T10:33:38.436Z,4.00
2022-10-20T10:36:15.885Z,5.00
2022-10-20T10:38:43.098Z,4.60
2022-10-20T10:41:10.602Z,3.67
2022-10-20T10:43:48.780Z,4.57
2022-10-20T10:46:27.304Z,4.57
2022-10-20T10:49:05.541Z,4.00
2022-10-20T10:51:35.936Z,3.53
2022-10-20T10:54:13.467Z,3.73
2022-10-20T10:56:45.505Z,3.63
2022-10-20T10:59:12.742Z,4.07
2022-10-20T11:01:45.841Z,4.30
2022-10-20T11:04:18.781Z,3.90
2022-10-20T11:07:18.446Z,3.53
2022-10-20T11:09:48.820Z,3.80
2022-10-20T11:12:22.506Z,4.00
2022-10-20T11:14:53.165Z,4.10
2022-10-20T11:17:46.454Z,4.83
2022-10-20T11:59:38.230Z,6.23
2022-10-20T15:55:34.278Z,5.90
2022-10-20T15:58:01.417Z,6.37
2022-10-20T16:00:29.125Z,7.13
2022-10-20T16:02:57.361Z,6.60
2022-10-20T16:05:25.929Z,6.40
2022-10-20T16:10:29.363Z,6.33
2022-10-20T16:12:57.976Z,6.87
2022-10-20T16:32:39.039Z,7.17
2022-10-20T16:35:06.375Z,7.27
2022-10-20T16:37:33.397Z,6.83
